sensor_id;sensor_type;location;lat;lon;timestamp;P1;durP1;ratioP1;P2;durP2;ratioP2
62584;SDS011;48643;51.670;5.808;2023-12-07T00:02:03;9.55;;;6.20;;
62584;SDS011;48643;51.670;5.808;2023-12-07T00:04:31;10.43;;;6.60;;
62584;SDS011;48643;51.670;5.808;2023-12-07T00:06:57;11.52;;;7.20;;
62584;SDS011;48643;51.670;5.808;2023-12-07T00:09:24;11.48;;;6.60;;
62584;SDS011;48643;51.670;5.808;2023-12-07T00:11:51;9.70;;;6.60;;
62584;SDS011;48643;51.670;5.808;2023-12-07T00:14:18;11.05;;;6.43;;
62584;SDS011;48643;51.670;5.808;2023-12-07T00:16:45;9.80;;;6.60;;
62584;SDS011;48643;51.670;5.808;2023-12-07T00:19:12;10.30;;;6.60;;
62584;SDS011;48643;51.670;5.808;2023-12-07T00:21:39;12.35;;;6.90;;
62584;SDS011;48643;51.670;5.808;2023-12-07T00:24:07;10.52;;;6.45;;
62584;SDS011;48643;51.670;5.808;2023-12-07T00:26:34;9.45;;;6.40;;
62584;SDS011;48643;51.670;5.808;2023-12-07T00:29:02;12.55;;;6.80;;
62584;SDS011;48643;51.670;5.808;2023-12-07T00:31:29;10.55;;;6.80;;
62584;SDS011;48643;51.670;5.808;2023-12-07T00:33:56;11.73;;;6.90;;
62584;SDS011;48643;51.670;5.808;2023-12-07T00:36:24;10.93;;;6.65;;
62584;SDS011;48643;51.670;5.808;2023-12-07T00:38:52;11.75;;;6.90;;
62584;SDS011;48643;51.670;5.808;2023-12-07T00:41:19;11.52;;;6.95;;
62584;SDS011;48643;51.670;5.808;2023-12-07T00:43:46;12.52;;;7.10;;
62584;SDS011;48643;51.670;5.808;2023-12-07T00:46:14;13.23;;;6.90;;
62584;SDS011;48643;51.670;5.808;2023-12-07T00:48:40;9.73;;;6.82;;
62584;SDS011;48643;51.670;5.808;2023-12-07T00:51:08;11.40;;;7.10;;
62584;SDS011;48643;51.670;5.808;2023-12-07T00:53:34;11.07;;;6.70;;
62584;SDS011;48643;51.670;5.808;2023-12-07T00:56:02;10.63;;;6.47;;
62584;SDS011;48643;51.670;5.808;2023-12-07T00:58:29;10.50;;;6.63;;
62584;SDS011;48643;51.670;5.808;2023-12-07T01:00:56;9.73;;;6.43;;
62584;SDS011;48643;51.670;5.808;2023-12-07T01:03:23;10.68;;;6.75;;
62584;SDS011;48643;51.670;5.808;2023-12-07T01:05:50;11.48;;;7.00;;
62584;SDS011;48643;51.670;5.808;2023-12-07T01:08:17;11.80;;;6.90;;
62584;SDS011;48643;51.670;5.808;2023-12-07T01:10:44;9.77;;;6.50;;
62584;SDS011;48643;51.670;5.808;2023-12-07T01:13:11;11.90;;;6.78;;
62584;SDS011;48643;51.670;5.808;2023-12-07T01:15:38;10.10;;;6.93;;
62584;SDS011;48643;51.670;5.808;2023-12-07T01:18:05;11.30;;;6.97;;
62584;SDS011;48643;51.670;5.808;2023-12-07T01:20:32;12.43;;;6.90;;
62584;SDS011;48643;51.670;5.808;2023-12-07T01:22:59;11.35;;;6.78;;
62584;SDS011;48643;51.670;5.808;2023-12-07T01:25:26;11.23;;;7.18;;
62584;SDS011;48643;51.670;5.808;2023-12-07T01:27:53;11.13;;;7.30;;
62584;SDS011;48643;51.670;5.808;2023-12-07T01:30:21;10.25;;;7.00;;
62584;SDS011;48643;51.670;5.808;2023-12-07T01:32:48;11.77;;;6.72;;
62584;SDS011;48643;51.670;5.808;2023-12-07T01:35:15;15.18;;;7.50;;
62584;SDS011;48643;51.670;5.808;2023-12-07T01:37:42;10.73;;;7.05;;
62584;SDS011;48643;51.670;5.808;2023-12-07T01:40:08;11.95;;;7.40;;
62584;SDS011;48643;51.670;5.808;2023-12-07T01:42:38;11.35;;;6.95;;
62584;SDS011;48643;51.670;5.808;2023-12-07T01:45:05;11.95;;;7.18;;
62584;SDS011;48643;51.670;5.808;2023-12-07T01:47:33;13.02;;;7.32;;
62584;SDS011;48643;51.670;5.808;2023-12-07T01:50:02;12.48;;;7.30;;
62584;SDS011;48643;51.670;5.808;2023-12-07T01:52:31;11.52;;;7.13;;
62584;SDS011;48643;51.670;5.808;2023-12-07T01:54:58;11.85;;;7.13;;
62584;SDS011;48643;51.670;5.808;2023-12-07T01:57:25;12.48;;;7.20;;
62584;SDS011;48643;51.670;5.808;2023-12-07T01:59:52;16.67;;;7.75;;
62584;SDS011;48643;51.670;5.808;2023-12-07T02:02:18;12.93;;;7.32;;
62584;SDS011;48643;51.670;5.808;2023-12-07T02:04:45;11.65;;;7.47;;
62584;SDS011;48643;51.670;5.808;2023-12-07T02:07:12;11.98;;;7.47;;
62584;SDS011;48643;51.670;5.808;2023-12-07T02:09:39;11.05;;;7.07;;
62584;SDS011;48643;51.670;5.808;2023-12-07T02:12:06;10.48;;;7.00;;
62584;SDS011;48643;51.670;5.808;2023-12-07T02:14:34;12.48;;;7.35;;
62584;SDS011;48643;51.670;5.808;2023-12-07T02:17:08;12.40;;;7.55;;
62584;SDS011;48643;51.670;5.808;2023-12-07T02:22:32;12.00;;;7.72;;
62584;SDS011;48643;51.670;5.808;2023-12-07T02:25:06;11.65;;;7.40;;
62584;SDS011;48643;51.670;5.808;2023-12-07T02:27:35;12.13;;;7.57;;
62584;SDS011;48643;51.670;5.808;2023-12-07T02:30:02;13.68;;;7.78;;
62584;SDS011;48643;51.670;5.808;2023-12-07T02:32:30;13.07;;;7.38;;
62584;SDS011;48643;51.670;5.808;2023-12-07T02:34:57;14.45;;;7.60;;
62584;SDS011;48643;51.670;5.808;2023-12-07T02:37:24;12.60;;;7.60;;
62584;SDS011;48643;51.670;5.808;2023-12-07T02:39:55;15.38;;;8.20;;
62584;SDS011;48643;51.670;5.808;2023-12-07T02:42:23;13.07;;;8.07;;
62584;SDS011;48643;51.670;5.808;2023-12-07T02:44:52;12.00;;;7.60;;
62584;SDS011;48643;51.670;5.808;2023-12-07T02:47:19;13.82;;;7.95;;
62584;SDS011;48643;51.670;5.808;2023-12-07T02:49:46;13.10;;;8.35;;
62584;SDS011;48643;51.670;5.808;2023-12-07T02:52:13;13.48;;;8.52;;
62584;SDS011;48643;51.670;5.808;2023-12-07T02:54:40;11.30;;;7.63;;
62584;SDS011;48643;51.670;5.808;2023-12-07T02:57:07;12.65;;;7.47;;
62584;SDS011;48643;51.670;5.808;2023-12-07T02:59:34;13.18;;;7.97;;
62584;SDS011;48643;51.670;5.808;2023-12-07T03:02:01;12.10;;;7.78;;
62584;SDS011;48643;51.670;5.808;2023-12-07T03:04:27;12.38;;;7.70;;
62584;SDS011;48643;51.670;5.808;2023-12-07T03:06:54;13.70;;;8.07;;
62584;SDS011;48643;51.670;5.808;2023-12-07T03:09:21;13.20;;;7.95;;
62584;SDS011;48643;51.670;5.808;2023-12-07T03:11:48;13.60;;;8.23;;
62584;SDS011;48643;51.670;5.808;2023-12-07T03:14:15;15.07;;;8.23;;
62584;SDS011;48643;51.670;5.808;2023-12-07T03:16:42;12.82;;;7.68;;
62584;SDS011;48643;51.670;5.808;2023-12-07T03:19:09;12.80;;;8.35;;
62584;SDS011;48643;51.670;5.808;2023-12-07T03:21:38;14.77;;;8.07;;
62584;SDS011;48643;51.670;5.808;2023-12-07T03:24:09;13.20;;;8.20;;
62584;SDS011;48643;51.670;5.808;2023-12-07T03:26:37;12.35;;;7.57;;
62584;SDS011;48643;51.670;5.808;2023-12-07T03:29:04;12.95;;;8.07;;
62584;SDS011;48643;51.670;5.808;2023-12-07T03:31:31;14.15;;;8.43;;
62584;SDS011;48643;51.670;5.808;2023-12-07T03:33:58;14.18;;;7.90;;
62584;SDS011;48643;51.670;5.808;2023-12-07T03:36:27;13.35;;;8.00;;
62584;SDS011;48643;51.670;5.808;2023-12-07T03:38:56;13.40;;;8.40;;
62584;SDS011;48643;51.670;5.808;2023-12-07T03:41:23;10.85;;;7.43;;
62584;SDS011;48643;51.670;5.808;2023-12-07T03:43:50;13.75;;;7.90;;
62584;SDS011;48643;51.670;5.808;2023-12-07T03:46:17;12.32;;;7.68;;
62584;SDS011;48643;51.670;5.808;2023-12-07T03:48:44;12.25;;;7.93;;
62584;SDS011;48643;51.670;5.808;2023-12-07T03:51:14;13.77;;;8.32;;
62584;SDS011;48643;51.670;5.808;2023-12-07T03:53:43;13.50;;;8.43;;
62584;SDS011;48643;51.670;5.808;2023-12-07T03:56:10;13.23;;;8.50;;
62584;SDS011;48643;51.670;5.808;2023-12-07T03:58:37;13.13;;;8.52;;
62584;SDS011;48643;51.670;5.808;2023-12-07T04:01:04;12.13;;;8.13;;
62584;SDS011;48643;51.670;5.808;2023-12-07T04:03:31;12.73;;;8.50;;
62584;SDS011;48643;51.670;5.808;2023-12-07T04:05:58;14.10;;;8.77;;
62584;SDS011;48643;51.670;5.808;2023-12-07T04:08:25;14.98;;;8.70;;
62584;SDS011;48643;51.670;5.808;2023-12-07T04:10:52;12.68;;;8.25;;
62584;SDS011;48643;51.670;5.808;2023-12-07T04:13:19;12.60;;;8.27;;
62584;SDS011;48643;51.670;5.808;2023-12-07T04:15:46;12.68;;;8.70;;
62584;SDS011;48643;51.670;5.808;2023-12-07T04:18:13;13.52;;;9.02;;
62584;SDS011;48643;51.670;5.808;2023-12-07T04:20:40;13.65;;;9.07;;
62584;SDS011;48643;51.670;5.808;2023-12-07T04:23:07;13.35;;;8.35;;
62584;SDS011;48643;51.670;5.808;2023-12-07T04:25:35;14.05;;;8.73;;
62584;SDS011;48643;51.670;5.808;2023-12-07T04:28:02;13.02;;;8.65;;
62584;SDS011;48643;51.670;5.808;2023-12-07T04:30:29;14.68;;;9.40;;
62584;SDS011;48643;51.670;5.808;2023-12-07T04:32:56;13.07;;;9.10;;
62584;SDS011;48643;51.670;5.808;2023-12-07T04:35:23;14.07;;;9.20;;
62584;SDS011;48643;51.670;5.808;2023-12-07T04:37:50;12.57;;;8.27;;
62584;SDS011;48643;51.670;5.808;2023-12-07T04:40:17;12.32;;;8.70;;
62584;SDS011;48643;51.670;5.808;2023-12-07T04:42:44;14.35;;;8.90;;
62584;SDS011;48643;51.670;5.808;2023-12-07T04:45:11;13.23;;;8.77;;
62584;SDS011;48643;51.670;5.808;2023-12-07T04:47:38;12.68;;;8.82;;
62584;SDS011;48643;51.670;5.808;2023-12-07T04:50:05;15.20;;;9.27;;
62584;SDS011;48643;51.670;5.808;2023-12-07T04:52:32;13.82;;;9.20;;
62584;SDS011;48643;51.670;5.808;2023-12-07T04:55:02;13.05;;;8.52;;
62584;SDS011;48643;51.670;5.808;2023-12-07T04:57:29;14.02;;;9.02;;
62584;SDS011;48643;51.670;5.808;2023-12-07T04:59:56;12.95;;;9.10;;
62584;SDS011;48643;51.670;5.808;2023-12-07T05:02:23;12.93;;;8.85;;
62584;SDS011;48643;51.670;5.808;2023-12-07T05:04:50;12.93;;;8.38;;
62584;SDS011;48643;51.670;5.808;2023-12-07T05:07:17;13.88;;;9.50;;
62584;SDS011;48643;51.670;5.808;2023-12-07T05:09:44;15.20;;;9.45;;
62584;SDS011;48643;51.670;5.808;2023-12-07T05:12:12;13.13;;;8.93;;
62584;SDS011;48643;51.670;5.808;2023-12-07T05:14:39;13.35;;;8.82;;
62584;SDS011;48643;51.670;5.808;2023-12-07T05:17:07;14.63;;;9.52;;
62584;SDS011;48643;51.670;5.808;2023-12-07T05:19:34;12.48;;;8.48;;
62584;SDS011;48643;51.670;5.808;2023-12-07T05:22:01;13.82;;;9.30;;
62584;SDS011;48643;51.670;5.808;2023-12-07T05:24:28;14.15;;;9.90;;
62584;SDS011;48643;51.670;5.808;2023-12-07T05:26:56;14.60;;;9.50;;
62584;SDS011;48643;51.670;5.808;2023-12-07T05:29:23;14.02;;;9.48;;
62584;SDS011;48643;51.670;5.808;2023-12-07T05:31:50;15.85;;;9.98;;
62584;SDS011;48643;51.670;5.808;2023-12-07T05:34:17;16.15;;;10.13;;
62584;SDS011;48643;51.670;5.808;2023-12-07T05:36:44;15.00;;;10.13;;
62584;SDS011;48643;51.670;5.808;2023-12-07T05:39:12;15.27;;;10.27;;
62584;SDS011;48643;51.670;5.808;2023-12-07T05:41:39;14.75;;;9.65;;
62584;SDS011;48643;51.670;5.808;2023-12-07T05:44:06;16.83;;;10.02;;
62584;SDS011;48643;51.670;5.808;2023-12-07T05:46:35;13.63;;;9.32;;
62584;SDS011;48643;51.670;5.808;2023-12-07T05:49:02;14.13;;;9.57;;
62584;SDS011;48643;51.670;5.808;2023-12-07T05:51:29;15.18;;;10.25;;
62584;SDS011;48643;51.670;5.808;2023-12-07T05:53:56;14.60;;;9.57;;
62584;SDS011;48643;51.670;5.808;2023-12-07T05:56:24;15.68;;;9.95;;
62584;SDS011;48643;51.670;5.808;2023-12-07T05:58:51;14.35;;;9.07;;
62584;SDS011;48643;51.670;5.808;2023-12-07T06:01:18;14.50;;;9.60;;
62584;SDS011;48643;51.670;5.808;2023-12-07T06:03:45;15.30;;;9.75;;
62584;SDS011;48643;51.670;5.808;2023-12-07T06:06:12;15.15;;;9.68;;
62584;SDS011;48643;51.670;5.808;2023-12-07T06:08:39;15.85;;;9.85;;
62584;SDS011;48643;51.670;5.808;2023-12-07T06:11:06;15.48;;;9.95;;
62584;SDS011;48643;51.670;5.808;2023-12-07T06:13:33;14.32;;;9.40;;
62584;SDS011;48643;51.670;5.808;2023-12-07T06:16:01;15.60;;;9.77;;
62584;SDS011;48643;51.670;5.808;2023-12-07T06:18:29;15.27;;;9.65;;
62584;SDS011;48643;51.670;5.808;2023-12-07T06:20:56;14.88;;;9.75;;
62584;SDS011;48643;51.670;5.808;2023-12-07T06:23:23;12.80;;;9.10;;
62584;SDS011;48643;51.670;5.808;2023-12-07T06:25:50;15.95;;;10.05;;
62584;SDS011;48643;51.670;5.808;2023-12-07T06:28:17;14.82;;;9.65;;
62584;SDS011;48643;51.670;5.808;2023-12-07T06:30:44;13.98;;;9.15;;
62584;SDS011;48643;51.670;5.808;2023-12-07T06:33:11;14.82;;;9.23;;
62584;SDS011;48643;51.670;5.808;2023-12-07T06:35:38;13.57;;;9.40;;
62584;SDS011;48643;51.670;5.808;2023-12-07T06:38:05;13.45;;;8.80;;
62584;SDS011;48643;51.670;5.808;2023-12-07T06:40:32;13.75;;;9.32;;
62584;SDS011;48643;51.670;5.808;2023-12-07T06:42:59;13.45;;;8.88;;
62584;SDS011;48643;51.670;5.808;2023-12-07T06:45:26;14.02;;;9.20;;
62584;SDS011;48643;51.670;5.808;2023-12-07T06:47:53;15.02;;;8.50;;
62584;SDS011;48643;51.670;5.808;2023-12-07T06:50:20;12.90;;;8.63;;
62584;SDS011;48643;51.670;5.808;2023-12-07T06:52:47;14.68;;;9.63;;
62584;SDS011;48643;51.670;5.808;2023-12-07T06:55:14;13.30;;;8.88;;
62584;SDS011;48643;51.670;5.808;2023-12-07T06:57:42;13.30;;;8.80;;
62584;SDS011;48643;51.670;5.808;2023-12-07T07:00:08;12.55;;;8.52;;
62584;SDS011;48643;51.670;5.808;2023-12-07T07:02:38;13.88;;;9.35;;
62584;SDS011;48643;51.670;5.808;2023-12-07T07:05:05;14.35;;;9.48;;
62584;SDS011;48643;51.670;5.808;2023-12-07T07:07:32;13.55;;;8.63;;
62584;SDS011;48643;51.670;5.808;2023-12-07T07:09:59;13.55;;;8.85;;
62584;SDS011;48643;51.670;5.808;2023-12-07T07:12:26;13.15;;;8.88;;
62584;SDS011;48643;51.670;5.808;2023-12-07T07:14:53;14.00;;;8.85;;
62584;SDS011;48643;51.670;5.808;2023-12-07T07:17:20;13.23;;;8.75;;
62584;SDS011;48643;51.670;5.808;2023-12-07T07:19:48;14.02;;;9.07;;
62584;SDS011;48643;51.670;5.808;2023-12-07T07:22:15;12.70;;;7.95;;
62584;SDS011;48643;51.670;5.808;2023-12-07T07:24:42;12.55;;;8.57;;
62584;SDS011;48643;51.670;5.808;2023-12-07T07:27:09;13.20;;;8.80;;
62584;SDS011;48643;51.670;5.808;2023-12-07T07:29:36;12.50;;;7.80;;
62584;SDS011;48643;51.670;5.808;2023-12-07T07:32:03;13.05;;;8.50;;
62584;SDS011;48643;51.670;5.808;2023-12-07T07:34:30;13.30;;;8.10;;
62584;SDS011;48643;51.670;5.808;2023-12-07T07:36:58;12.65;;;8.18;;
62584;SDS011;48643;51.670;5.808;2023-12-07T07:39:25;13.75;;;8.73;;
62584;SDS011;48643;51.670;5.808;2023-12-07T07:41:51;12.00;;;7.82;;
62584;SDS011;48643;51.670;5.808;2023-12-07T07:44:18;11.27;;;7.60;;
62584;SDS011;48643;51.670;5.808;2023-12-07T07:46:45;12.15;;;7.55;;
62584;SDS011;48643;51.670;5.808;2023-12-07T07:49:12;12.88;;;7.90;;
62584;SDS011;48643;51.670;5.808;2023-12-07T07:51:39;11.95;;;7.20;;
62584;SDS011;48643;51.670;5.808;2023-12-07T07:54:06;15.18;;;7.50;;
62584;SDS011;48643;51.670;5.808;2023-12-07T07:56:33;12.32;;;8.00;;
62584;SDS011;48643;51.670;5.808;2023-12-07T07:59:00;11.95;;;7.25;;
62584;SDS011;48643;51.670;5.808;2023-12-07T08:01:27;12.30;;;7.13;;
62584;SDS011;48643;51.670;5.808;2023-12-07T08:03:54;10.38;;;6.82;;
62584;SDS011;48643;51.670;5.808;2023-12-07T08:06:21;11.73;;;7.25;;
62584;SDS011;48643;51.670;5.808;2023-12-07T08:08:47;12.00;;;7.40;;
62584;SDS011;48643;51.670;5.808;2023-12-07T08:11:16;10.45;;;6.28;;
62584;SDS011;48643;51.670;5.808;2023-12-07T08:13:42;13.85;;;7.22;;
62584;SDS011;48643;51.670;5.808;2023-12-07T08:16:09;17.67;;;7.55;;
62584;SDS011;48643;51.670;5.808;2023-12-07T08:18:36;11.40;;;7.22;;
62584;SDS011;48643;51.670;5.808;2023-12-07T08:21:04;11.40;;;7.13;;
62584;SDS011;48643;51.670;5.808;2023-12-07T08:23:31;14.25;;;6.72;;
62584;SDS011;48643;51.670;5.808;2023-12-07T08:25:58;10.60;;;6.53;;
62584;SDS011;48643;51.670;5.808;2023-12-07T08:28:24;14.55;;;7.00;;
62584;SDS011;48643;51.670;5.808;2023-12-07T08:30:52;11.18;;;6.80;;
62584;SDS011;48643;51.670;5.808;2023-12-07T08:33:19;11.23;;;6.93;;
62584;SDS011;48643;51.670;5.808;2023-12-07T08:35:46;10.60;;;6.60;;
62584;SDS011;48643;51.670;5.808;2023-12-07T08:38:15;16.05;;;6.93;;
62584;SDS011;48643;51.670;5.808;2023-12-07T08:40:42;11.32;;;6.90;;
62584;SDS011;48643;51.670;5.808;2023-12-07T08:43:09;10.18;;;6.20;;
62584;SDS011;48643;51.670;5.808;2023-12-07T08:45:36;10.02;;;6.57;;
62584;SDS011;48643;51.670;5.808;2023-12-07T08:48:05;9.10;;;6.23;;
62584;SDS011;48643;51.670;5.808;2023-12-07T08:50:32;10.73;;;6.55;;
62584;SDS011;48643;51.670;5.808;2023-12-07T08:52:59;11.15;;;6.55;;
62584;SDS011;48643;51.670;5.808;2023-12-07T08:55:31;10.48;;;6.60;;
62584;SDS011;48643;51.670;5.808;2023-12-07T08:57:58;10.10;;;6.55;;
62584;SDS011;48643;51.670;5.808;2023-12-07T09:00:27;11.68;;;7.03;;
62584;SDS011;48643;51.670;5.808;2023-12-07T09:02:54;11.68;;;6.85;;
62584;SDS011;48643;51.670;5.808;2023-12-07T09:05:21;10.65;;;6.63;;
62584;SDS011;48643;51.670;5.808;2023-12-07T09:07:47;11.23;;;6.75;;
62584;SDS011;48643;51.670;5.808;2023-12-07T09:10:14;10.35;;;6.38;;
62584;SDS011;48643;51.670;5.808;2023-12-07T09:12:41;11.93;;;6.70;;
62584;SDS011;48643;51.670;5.808;2023-12-07T09:15:09;12.25;;;6.60;;
62584;SDS011;48643;51.670;5.808;2023-12-07T09:17:37;11.35;;;6.45;;
62584;SDS011;48643;51.670;5.808;2023-12-07T09:20:08;10.40;;;6.35;;
62584;SDS011;48643;51.670;5.808;2023-12-07T09:22:44;10.02;;;6.00;;
62584;SDS011;48643;51.670;5.808;2023-12-07T09:25:12;10.82;;;6.80;;
62584;SDS011;48643;51.670;5.808;2023-12-07T09:27:39;12.32;;;6.72;;
62584;SDS011;48643;51.670;5.808;2023-12-07T09:30:07;11.45;;;6.10;;
62584;SDS011;48643;51.670;5.808;2023-12-07T09:32:38;11.18;;;6.78;;
62584;SDS011;48643;51.670;5.808;2023-12-07T09:35:06;9.20;;;6.00;;
62584;SDS011;48643;51.670;5.808;2023-12-07T09:37:34;11.85;;;6.32;;
62584;SDS011;48643;51.670;5.808;2023-12-07T09:40:01;9.88;;;6.07;;
62584;SDS011;48643;51.670;5.808;2023-12-07T09:45:03;11.00;;;6.20;;
62584;SDS011;48643;51.670;5.808;2023-12-07T09:47:31;9.57;;;5.50;;
62584;SDS011;48643;51.670;5.808;2023-12-07T09:50:04;13.23;;;6.45;;
62584;SDS011;48643;51.670;5.808;2023-12-07T09:52:32;10.47;;;5.93;;
62584;SDS011;48643;51.670;5.808;2023-12-07T09:55:03;10.25;;;6.07;;
62584;SDS011;48643;51.670;5.808;2023-12-07T09:57:33;9.93;;;5.72;;
62584;SDS011;48643;51.670;5.808;2023-12-07T10:00:01;9.60;;;5.82;;
62584;SDS011;48643;51.670;5.808;2023-12-07T10:02:32;11.25;;;6.25;;
62584;SDS011;48643;51.670;5.808;2023-12-07T10:05:03;11.40;;;5.63;;
62584;SDS011;48643;51.670;5.808;2023-12-07T10:07:36;10.90;;;6.18;;
62584;SDS011;48643;51.670;5.808;2023-12-07T10:10:06;11.75;;;6.43;;
62584;SDS011;48643;51.670;5.808;2023-12-07T10:12:34;10.15;;;5.93;;
62584;SDS011;48643;51.670;5.808;2023-12-07T10:15:12;10.93;;;6.10;;
62584;SDS011;48643;51.670;5.808;2023-12-07T10:17:43;10.63;;;5.78;;
62584;SDS011;48643;51.670;5.808;2023-12-07T10:20:18;9.45;;;6.00;;
62584;SDS011;48643;51.670;5.808;2023-12-07T10:23:03;10.75;;;5.88;;
62584;SDS011;48643;51.670;5.808;2023-12-07T10:25:35;11.65;;;5.88;;
62584;SDS011;48643;51.670;5.808;2023-12-07T10:28:03;8.63;;;5.78;;
62584;SDS011;48643;51.670;5.808;2023-12-07T10:30:34;11.70;;;6.30;;
62584;SDS011;48643;51.670;5.808;2023-12-07T10:33:05;9.07;;;5.57;;
62584;SDS011;48643;51.670;5.808;2023-12-07T10:35:40;12.23;;;6.47;;
62584;SDS011;48643;51.670;5.808;2023-12-07T10:38:08;9.90;;;5.85;;
62584;SDS011;48643;51.670;5.808;2023-12-07T10:40:36;10.35;;;5.75;;
62584;SDS011;48643;51.670;5.808;2023-12-07T10:43:06;9.10;;;5.45;;
62584;SDS011;48643;51.670;5.808;2023-12-07T10:45:35;10.90;;;6.32;;
62584;SDS011;48643;51.670;5.808;2023-12-07T10:48:05;13.95;;;6.03;;
62584;SDS011;48643;51.670;5.808;2023-12-07T10:50:42;11.68;;;5.95;;
62584;SDS011;48643;51.670;5.808;2023-12-07T10:58:14;10.75;;;5.65;;
62584;SDS011;48643;51.670;5.808;2023-12-07T11:00:42;9.82;;;5.63;;
62584;SDS011;48643;51.670;5.808;2023-12-07T11:03:15;9.55;;;5.65;;
62584;SDS011;48643;51.670;5.808;2023-12-07T11:05:44;7.87;;;5.43;;
62584;SDS011;48643;51.670;5.808;2023-12-07T11:08:19;10.82;;;6.00;;
62584;SDS011;48643;51.670;5.808;2023-12-07T11:13:33;8.95;;;5.55;;
62584;SDS011;48643;51.670;5.808;2023-12-07T11:16:03;8.95;;;5.78;;
62584;SDS011;48643;51.670;5.808;2023-12-07T11:18:30;10.00;;;5.65;;
62584;SDS011;48643;51.670;5.808;2023-12-07T11:20:57;10.00;;;5.25;;
62584;SDS011;48643;51.670;5.808;2023-12-07T11:23:26;8.70;;;5.50;;
62584;SDS011;48643;51.670;5.808;2023-12-07T11:25:54;8.80;;;5.38;;
62584;SDS011;48643;51.670;5.808;2023-12-07T11:28:35;9.27;;;6.10;;
62584;SDS011;48643;51.670;5.808;2023-12-07T11:31:03;9.73;;;5.25;;
62584;SDS011;48643;51.670;5.808;2023-12-07T11:33:30;10.43;;;5.35;;
62584;SDS011;48643;51.670;5.808;2023-12-07T11:36:04;10.15;;;5.85;;
62584;SDS011;48643;51.670;5.808;2023-12-07T11:38:32;8.98;;;5.35;;
62584;SDS011;48643;51.670;5.808;2023-12-07T11:41:00;9.10;;;5.50;;
62584;SDS011;48643;51.670;5.808;2023-12-07T11:46:02;9.05;;;5.53;;
62584;SDS011;48643;51.670;5.808;2023-12-07T11:48:29;10.45;;;5.55;;
62584;SDS011;48643;51.670;5.808;2023-12-07T11:51:03;9.85;;;5.50;;
62584;SDS011;48643;51.670;5.808;2023-12-07T11:53:35;8.80;;;5.03;;
62584;SDS011;48643;51.670;5.808;2023-12-07T11:56:03;8.60;;;5.05;;
62584;SDS011;48643;51.670;5.808;2023-12-07T11:58:32;8.63;;;5.45;;
62584;SDS011;48643;51.670;5.808;2023-12-07T12:01:05;8.38;;;5.20;;
62584;SDS011;48643;51.670;5.808;2023-12-07T12:03:34;10.93;;;4.97;;
62584;SDS011;48643;51.670;5.808;2023-12-07T12:06:03;10.77;;;5.53;;
62584;SDS011;48643;51.670;5.808;2023-12-07T12:08:32;8.23;;;5.45;;
62584;SDS011;48643;51.670;5.808;2023-12-07T12:10:59;10.63;;;5.40;;
62584;SDS011;48643;51.670;5.808;2023-12-07T12:13:29;10.65;;;5.35;;
62584;SDS011;48643;51.670;5.808;2023-12-07T12:15:58;7.70;;;4.72;;
62584;SDS011;48643;51.670;5.808;2023-12-07T12:18:29;8.63;;;5.50;;
62584;SDS011;48643;51.670;5.808;2023-12-07T12:20:56;8.93;;;5.20;;
62584;SDS011;48643;51.670;5.808;2023-12-07T12:23:26;14.90;;;4.70;;
62584;SDS011;48643;51.670;5.808;2023-12-07T12:25:53;9.90;;;5.18;;
62584;SDS011;48643;51.670;5.808;2023-12-07T12:28:20;7.00;;;4.80;;
62584;SDS011;48643;51.670;5.808;2023-12-07T12:30:49;7.68;;;4.82;;
62584;SDS011;48643;51.670;5.808;2023-12-07T12:33:17;8.25;;;4.60;;
62584;SDS011;48643;51.670;5.808;2023-12-07T12:35:43;10.00;;;5.43;;
62584;SDS011;48643;51.670;5.808;2023-12-07T12:38:11;7.65;;;4.63;;
62584;SDS011;48643;51.670;5.808;2023-12-07T12:40:52;9.20;;;4.88;;
62584;SDS011;48643;51.670;5.808;2023-12-07T12:43:20;9.85;;;6.00;;
62584;SDS011;48643;51.670;5.808;2023-12-07T12:45:48;10.20;;;5.75;;
62584;SDS011;48643;51.670;5.808;2023-12-07T12:48:31;9.32;;;5.65;;
62584;SDS011;48643;51.670;5.808;2023-12-07T12:51:06;8.10;;;5.15;;
62584;SDS011;48643;51.670;5.808;2023-12-07T12:53:34;9.82;;;5.60;;
62584;SDS011;48643;51.670;5.808;2023-12-07T12:56:02;8.52;;;5.53;;
62584;SDS011;48643;51.670;5.808;2023-12-07T12:58:29;9.23;;;6.18;;
62584;SDS011;48643;51.670;5.808;2023-12-07T13:00:57;10.48;;;6.47;;
62584;SDS011;48643;51.670;5.808;2023-12-07T13:03:24;18.50;;;8.18;;
62584;SDS011;48643;51.670;5.808;2023-12-07T13:05:51;15.55;;;7.68;;
62584;SDS011;48643;51.670;5.808;2023-12-07T13:08:18;17.42;;;8.00;;
62584;SDS011;48643;51.670;5.808;2023-12-07T13:10:45;17.48;;;8.02;;
62584;SDS011;48643;51.670;5.808;2023-12-07T13:13:12;15.30;;;7.40;;
62584;SDS011;48643;51.670;5.808;2023-12-07T13:15:39;12.30;;;7.43;;
62584;SDS011;48643;51.670;5.808;2023-12-07T13:18:06;13.43;;;7.53;;
62584;SDS011;48643;51.670;5.808;2023-12-07T13:20:34;14.63;;;7.82;;
62584;SDS011;48643;51.670;5.808;2023-12-07T13:23:19;12.95;;;7.25;;
62584;SDS011;48643;51.670;5.808;2023-12-07T13:25:47;13.48;;;7.63;;
62584;SDS011;48643;51.670;5.808;2023-12-07T13:28:15;13.93;;;7.57;;
62584;SDS011;48643;51.670;5.808;2023-12-07T13:30:42;13.57;;;7.53;;
62584;SDS011;48643;51.670;5.808;2023-12-07T13:33:08;13.90;;;7.95;;
62584;SDS011;48643;51.670;5.808;2023-12-07T13:35:50;13.30;;;7.35;;
62584;SDS011;48643;51.670;5.808;2023-12-07T13:38:19;13.57;;;7.88;;
62584;SDS011;48643;51.670;5.808;2023-12-07T13:40:47;14.73;;;7.93;;
62584;SDS011;48643;51.670;5.808;2023-12-07T13:43:16;11.07;;;7.15;;
62584;SDS011;48643;51.670;5.808;2023-12-07T13:45:44;16.38;;;8.40;;
62584;SDS011;48643;51.670;5.808;2023-12-07T13:48:11;14.82;;;8.20;;
62584;SDS011;48643;51.670;5.808;2023-12-07T13:50:39;14.35;;;8.10;;
62584;SDS011;48643;51.670;5.808;2023-12-07T13:53:06;17.35;;;8.10;;
62584;SDS011;48643;51.670;5.808;2023-12-07T13:55:37;16.60;;;8.20;;
62584;SDS011;48643;51.670;5.808;2023-12-07T13:58:05;14.55;;;8.23;;
62584;SDS011;48643;51.670;5.808;2023-12-07T14:00:39;14.38;;;8.10;;
62584;SDS011;48643;51.670;5.808;2023-12-07T14:03:11;12.73;;;8.25;;
62584;SDS011;48643;51.670;5.808;2023-12-07T14:05:39;11.82;;;7.72;;
62584;SDS011;48643;51.670;5.808;2023-12-07T14:08:06;14.05;;;8.05;;
62584;SDS011;48643;51.670;5.808;2023-12-07T14:10:34;14.95;;;8.27;;
62584;SDS011;48643;51.670;5.808;2023-12-07T14:13:02;13.77;;;8.32;;
62584;SDS011;48643;51.670;5.808;2023-12-07T14:15:29;12.40;;;7.43;;
62584;SDS011;48643;51.670;5.808;2023-12-07T14:18:10;15.15;;;7.95;;
62584;SDS011;48643;51.670;5.808;2023-12-07T14:20:37;12.50;;;7.70;;
62584;SDS011;48643;51.670;5.808;2023-12-07T14:25:34;12.60;;;7.57;;
62584;SDS011;48643;51.670;5.808;2023-12-07T14:28:01;16.92;;;7.88;;
62584;SDS011;48643;51.670;5.808;2023-12-07T14:30:28;13.82;;;7.82;;
62584;SDS011;48643;51.670;5.808;2023-12-07T14:32:54;12.30;;;7.50;;
62584;SDS011;48643;51.670;5.808;2023-12-07T14:35:22;12.32;;;7.57;;
62584;SDS011;48643;51.670;5.808;2023-12-07T14:37:50;12.23;;;7.75;;
62584;SDS011;48643;51.670;5.808;2023-12-07T14:40:17;12.15;;;7.70;;
62584;SDS011;48643;51.670;5.808;2023-12-07T14:42:44;12.68;;;7.70;;
62584;SDS011;48643;51.670;5.808;2023-12-07T14:45:12;13.52;;;7.95;;
62584;SDS011;48643;51.670;5.808;2023-12-07T14:47:41;12.63;;;7.47;;
62584;SDS011;48643;51.670;5.808;2023-12-07T14:50:08;13.82;;;7.80;;
62584;SDS011;48643;51.670;5.808;2023-12-07T14:52:35;12.48;;;7.65;;
62584;SDS011;48643;51.670;5.808;2023-12-07T14:55:02;12.77;;;7.88;;
62584;SDS011;48643;51.670;5.808;2023-12-07T14:57:30;12.27;;;8.02;;
62584;SDS011;48643;51.670;5.808;2023-12-07T14:59:57;12.38;;;7.85;;